sensor_id;sensor_type;location;lat;lon;timestamp;P1;durP1;ratioP1;P2;durP2;ratioP2
7971;SDS011;4031;49.758;6.120;2022-12-10T00:01:26;20.80;;;13.02;;
7971;SDS011;4031;49.758;6.120;2022-12-10T00:03:54;21.08;;;14.18;;
7971;SDS011;4031;49.758;6.120;2022-12-10T00:06:21;25.00;;;13.55;;
7971;SDS011;4031;49.758;6.120;2022-12-10T00:08:50;18.45;;;13.07;;
7971;SDS011;4031;49.758;6.120;2022-12-10T00:11:17;21.27;;;13.38;;
7971;SDS011;4031;49.758;6.120;2022-12-10T00:13:44;22.75;;;13.68;;
7971;SDS011;4031;49.758;6.120;2022-12-10T00:16:12;20.70;;;12.45;;
7971;SDS011;4031;49.758;6.120;2022-12-10T00:18:42;17.05;;;10.45;;
7971;SDS011;4031;49.758;6.120;2022-12-10T00:21:09;22.13;;;13.20;;
7971;SDS011;4031;49.758;6.120;2022-12-10T00:23:39;23.77;;;12.52;;
7971;SDS011;4031;49.758;6.120;2022-12-10T00:26:06;24.30;;;13.95;;
7971;SDS011;4031;49.758;6.120;2022-12-10T00:28:37;20.90;;;12.73;;
7971;SDS011;4031;49.758;6.120;2022-12-10T00:31:18;26.05;;;14.20;;
7971;SDS011;4031;49.758;6.120;2022-12-10T00:33:50;18.77;;;12.38;;
7971;SDS011;4031;49.758;6.120;2022-12-10T00:36:20;18.52;;;12.73;;
7971;SDS011;4031;49.758;6.120;2022-12-10T00:38:58;17.33;;;11.82;;
7971;SDS011;4031;49.758;6.120;2022-12-10T00:41:24;21.95;;;13.20;;
7971;SDS011;4031;49.758;6.120;2022-12-10T00:43:50;24.60;;;13.57;;
7971;SDS011;4031;49.758;6.120;2022-12-10T00:46:16;24.43;;;11.30;;
7971;SDS011;4031;49.758;6.120;2022-12-10T00:48:43;22.05;;;12.60;;
7971;SDS011;4031;49.758;6.120;2022-12-10T00:53:39;25.75;;;12.75;;
7971;SDS011;4031;49.758;6.120;2022-12-10T00:56:08;20.88;;;12.10;;
7971;SDS011;4031;49.758;6.120;2022-12-10T00:58:36;23.23;;;12.32;;
7971;SDS011;4031;49.758;6.120;2022-12-10T01:03:38;19.98;;;11.98;;
7971;SDS011;4031;49.758;6.120;2022-12-10T01:06:12;19.65;;;13.27;;
7971;SDS011;4031;49.758;6.120;2022-12-10T01:08:42;24.33;;;12.85;;
7971;SDS011;4031;49.758;6.120;2022-12-10T01:11:09;27.05;;;14.35;;
7971;SDS011;4031;49.758;6.120;2022-12-10T01:13:37;23.65;;;13.60;;
7971;SDS011;4031;49.758;6.120;2022-12-10T01:16:04;24.60;;;14.30;;
7971;SDS011;4031;49.758;6.120;2022-12-10T01:18:32;25.77;;;13.93;;
7971;SDS011;4031;49.758;6.120;2022-12-10T01:21:05;18.90;;;11.23;;
7971;SDS011;4031;49.758;6.120;2022-12-10T01:23:36;14.07;;;11.27;;
7971;SDS011;4031;49.758;6.120;2022-12-10T01:26:05;21.90;;;13.80;;
7971;SDS011;4031;49.758;6.120;2022-12-10T01:28:35;24.35;;;13.82;;
7971;SDS011;4031;49.758;6.120;2022-12-10T01:31:04;21.17;;;13.38;;
7971;SDS011;4031;49.758;6.120;2022-12-10T01:33:33;23.88;;;13.60;;
7971;SDS011;4031;49.758;6.120;2022-12-10T01:36:03;22.83;;;13.90;;
7971;SDS011;4031;49.758;6.120;2022-12-10T01:38:32;27.10;;;14.60;;
7971;SDS011;4031;49.758;6.120;2022-12-10T01:40:59;24.87;;;13.03;;
7971;SDS011;4031;49.758;6.120;2022-12-10T01:43:26;25.60;;;13.68;;
7971;SDS011;4031;49.758;6.120;2022-12-10T01:45:52;26.10;;;13.55;;
7971;SDS011;4031;49.758;6.120;2022-12-10T01:48:18;32.97;;;14.83;;
7971;SDS011;4031;49.758;6.120;2022-12-10T01:50:44;23.52;;;14.18;;
7971;SDS011;4031;49.758;6.120;2022-12-10T01:53:11;24.97;;;13.60;;
7971;SDS011;4031;49.758;6.120;2022-12-10T01:55:49;22.83;;;13.88;;
7971;SDS011;4031;49.758;6.120;2022-12-10T01:58:16;21.27;;;11.27;;
7971;SDS011;4031;49.758;6.120;2022-12-10T02:01:04;19.05;;;11.95;;
7971;SDS011;4031;49.758;6.120;2022-12-10T02:09:38;18.65;;;12.90;;
7971;SDS011;4031;49.758;6.120;2022-12-10T02:12:23;20.55;;;14.05;;
7971;SDS011;4031;49.758;6.120;2022-12-10T02:17:52;19.73;;;12.63;;
7971;SDS011;4031;49.758;6.120;2022-12-10T02:20:26;25.90;;;15.48;;
7971;SDS011;4031;49.758;6.120;2022-12-10T02:28:19;19.40;;;12.25;;
7971;SDS011;4031;49.758;6.120;2022-12-10T02:30:59;31.23;;;14.98;;
7971;SDS011;4031;49.758;6.120;2022-12-10T02:33:26;19.30;;;12.45;;
7971;SDS011;4031;49.758;6.120;2022-12-10T02:35:54;23.85;;;13.80;;
7971;SDS011;4031;49.758;6.120;2022-12-10T02:38:26;22.70;;;14.07;;
7971;SDS011;4031;49.758;6.120;2022-12-10T02:40:57;30.10;;;14.15;;
7971;SDS011;4031;49.758;6.120;2022-12-10T02:43:26;24.90;;;15.25;;
7971;SDS011;4031;49.758;6.120;2022-12-10T02:45:54;38.45;;;16.98;;
7971;SDS011;4031;49.758;6.120;2022-12-10T02:48:22;26.77;;;16.33;;
7971;SDS011;4031;49.758;6.120;2022-12-10T02:50:49;32.35;;;16.60;;
7971;SDS011;4031;49.758;6.120;2022-12-10T02:53:15;26.47;;;14.80;;
7971;SDS011;4031;49.758;6.120;2022-12-10T02:58:48;29.55;;;13.85;;
7971;SDS011;4031;49.758;6.120;2022-12-10T03:01:56;27.90;;;14.30;;
7971;SDS011;4031;49.758;6.120;2022-12-10T03:07:35;23.08;;;13.60;;
7971;SDS011;4031;49.758;6.120;2022-12-10T03:12:59;28.92;;;15.13;;
7971;SDS011;4031;49.758;6.120;2022-12-10T03:15:33;25.00;;;14.35;;
7971;SDS011;4031;49.758;6.120;2022-12-10T03:18:02;28.35;;;15.35;;
7971;SDS011;4031;49.758;6.120;2022-12-10T03:20:31;28.88;;;15.90;;
7971;SDS011;4031;49.758;6.120;2022-12-10T03:23:00;29.23;;;15.83;;
7971;SDS011;4031;49.758;6.120;2022-12-10T03:25:29;32.15;;;16.52;;
7971;SDS011;4031;49.758;6.120;2022-12-10T03:27:56;23.98;;;14.10;;
7971;SDS011;4031;49.758;6.120;2022-12-10T03:30:24;24.15;;;14.32;;
7971;SDS011;4031;49.758;6.120;2022-12-10T03:32:50;23.67;;;14.30;;
7971;SDS011;4031;49.758;6.120;2022-12-10T03:35:17;33.85;;;17.55;;
7971;SDS011;4031;49.758;6.120;2022-12-10T03:37:47;26.52;;;15.27;;
7971;SDS011;4031;49.758;6.120;2022-12-10T03:40:15;31.65;;;18.55;;
7971;SDS011;4031;49.758;6.120;2022-12-10T03:42:46;28.63;;;15.25;;
7971;SDS011;4031;49.758;6.120;2022-12-10T03:45:12;26.33;;;15.00;;
7971;SDS011;4031;49.758;6.120;2022-12-10T03:47:38;26.75;;;14.65;;
7971;SDS011;4031;49.758;6.120;2022-12-10T03:50:05;31.05;;;16.92;;
7971;SDS011;4031;49.758;6.120;2022-12-10T03:52:32;25.60;;;12.13;;
7971;SDS011;4031;49.758;6.120;2022-12-10T03:54:57;27.13;;;15.40;;
7971;SDS011;4031;49.758;6.120;2022-12-10T03:57:23;21.70;;;15.23;;
7971;SDS011;4031;49.758;6.120;2022-12-10T03:59:49;24.80;;;13.63;;
7971;SDS011;4031;49.758;6.120;2022-12-10T04:02:14;31.37;;;14.57;;
7971;SDS011;4031;49.758;6.120;2022-12-10T04:04:40;35.60;;;16.20;;
7971;SDS011;4031;49.758;6.120;2022-12-10T04:07:06;26.90;;;15.60;;
7971;SDS011;4031;49.758;6.120;2022-12-10T04:09:32;33.43;;;17.17;;
7971;SDS011;4031;49.758;6.120;2022-12-10T04:11:58;23.57;;;14.47;;
7971;SDS011;4031;49.758;6.120;2022-12-10T04:14:24;26.70;;;14.63;;
7971;SDS011;4031;49.758;6.120;2022-12-10T04:17:10;29.15;;;16.50;;
7971;SDS011;4031;49.758;6.120;2022-12-10T04:19:36;27.48;;;16.75;;
7971;SDS011;4031;49.758;6.120;2022-12-10T04:22:02;25.42;;;14.40;;
7971;SDS011;4031;49.758;6.120;2022-12-10T04:24:46;29.40;;;14.48;;
7971;SDS011;4031;49.758;6.120;2022-12-10T04:27:32;29.52;;;16.02;;
7971;SDS011;4031;49.758;6.120;2022-12-10T04:30:01;27.45;;;13.75;;
7971;SDS011;4031;49.758;6.120;2022-12-10T04:32:30;25.85;;;14.20;;
7971;SDS011;4031;49.758;6.120;2022-12-10T04:34:56;28.13;;;15.13;;
7971;SDS011;4031;49.758;6.120;2022-12-10T04:37:22;28.85;;;15.85;;
7971;SDS011;4031;49.758;6.120;2022-12-10T04:39:49;28.65;;;15.77;;
7971;SDS011;4031;49.758;6.120;2022-12-10T04:42:16;26.45;;;14.93;;
7971;SDS011;4031;49.758;6.120;2022-12-10T04:44:42;29.25;;;15.50;;
7971;SDS011;4031;49.758;6.120;2022-12-10T04:47:08;31.50;;;17.33;;
7971;SDS011;4031;49.758;6.120;2022-12-10T04:49:35;24.98;;;16.98;;
7971;SDS011;4031;49.758;6.120;2022-12-10T04:52:01;29.80;;;16.20;;
7971;SDS011;4031;49.758;6.120;2022-12-10T04:54:27;35.50;;;18.38;;
7971;SDS011;4031;49.758;6.120;2022-12-10T04:56:53;26.43;;;15.07;;
7971;SDS011;4031;49.758;6.120;2022-12-10T04:59:19;27.10;;;16.80;;
7971;SDS011;4031;49.758;6.120;2022-12-10T05:01:44;27.00;;;16.30;;
7971;SDS011;4031;49.758;6.120;2022-12-10T05:04:11;31.10;;;17.05;;
7971;SDS011;4031;49.758;6.120;2022-12-10T05:06:41;30.88;;;17.05;;
7971;SDS011;4031;49.758;6.120;2022-12-10T05:09:07;29.42;;;13.88;;
7971;SDS011;4031;49.758;6.120;2022-12-10T05:11:35;27.15;;;15.05;;
7971;SDS011;4031;49.758;6.120;2022-12-10T05:14:01;27.13;;;14.77;;
7971;SDS011;4031;49.758;6.120;2022-12-10T05:16:28;27.37;;;15.40;;
7971;SDS011;4031;49.758;6.120;2022-12-10T05:18:56;28.85;;;15.85;;
7971;SDS011;4031;49.758;6.120;2022-12-10T05:21:24;32.85;;;18.38;;
7971;SDS011;4031;49.758;6.120;2022-12-10T05:24:11;26.83;;;14.57;;
7971;SDS011;4031;49.758;6.120;2022-12-10T05:26:37;30.63;;;17.50;;
7971;SDS011;4031;49.758;6.120;2022-12-10T05:29:03;32.10;;;17.00;;
7971;SDS011;4031;49.758;6.120;2022-12-10T05:31:29;31.60;;;15.97;;
7971;SDS011;4031;49.758;6.120;2022-12-10T05:33:56;28.38;;;17.42;;
7971;SDS011;4031;49.758;6.120;2022-12-10T05:36:27;28.35;;;15.52;;
7971;SDS011;4031;49.758;6.120;2022-12-10T05:38:55;29.02;;;17.48;;
7971;SDS011;4031;49.758;6.120;2022-12-10T05:41:23;22.50;;;15.15;;
7971;SDS011;4031;49.758;6.120;2022-12-10T05:43:53;30.25;;;16.42;;
7971;SDS011;4031;49.758;6.120;2022-12-10T05:46:21;36.88;;;17.95;;
7971;SDS011;4031;49.758;6.120;2022-12-10T05:48:52;26.17;;;17.25;;
7971;SDS011;4031;49.758;6.120;2022-12-10T05:51:20;29.33;;;15.32;;
7971;SDS011;4031;49.758;6.120;2022-12-10T05:53:52;28.10;;;15.05;;
7971;SDS011;4031;49.758;6.120;2022-12-10T05:56:19;26.40;;;15.18;;
7971;SDS011;4031;49.758;6.120;2022-12-10T05:58:48;30.40;;;18.27;;
7971;SDS011;4031;49.758;6.120;2022-12-10T06:01:20;29.02;;;17.02;;
7971;SDS011;4031;49.758;6.120;2022-12-10T06:03:49;30.08;;;17.83;;
7971;SDS011;4031;49.758;6.120;2022-12-10T06:06:24;29.13;;;16.63;;
7971;SDS011;4031;49.758;6.120;2022-12-10T06:08:53;27.83;;;14.40;;
7971;SDS011;4031;49.758;6.120;2022-12-10T06:11:20;25.20;;;14.95;;
7971;SDS011;4031;49.758;6.120;2022-12-10T06:13:46;26.38;;;15.68;;
7971;SDS011;4031;49.758;6.120;2022-12-10T06:16:13;25.05;;;14.65;;
7971;SDS011;4031;49.758;6.120;2022-12-10T06:18:39;32.72;;;15.95;;
7971;SDS011;4031;49.758;6.120;2022-12-10T06:21:06;30.38;;;16.92;;
7971;SDS011;4031;49.758;6.120;2022-12-10T06:23:36;32.83;;;14.85;;
7971;SDS011;4031;49.758;6.120;2022-12-10T06:26:07;29.88;;;16.13;;
7971;SDS011;4031;49.758;6.120;2022-12-10T06:28:36;22.60;;;14.05;;
7971;SDS011;4031;49.758;6.120;2022-12-10T06:31:02;33.70;;;16.70;;
7971;SDS011;4031;49.758;6.120;2022-12-10T06:33:28;31.42;;;16.42;;
7971;SDS011;4031;49.758;6.120;2022-12-10T06:35:54;21.55;;;15.27;;
7971;SDS011;4031;49.758;6.120;2022-12-10T06:38:20;29.27;;;15.27;;
7971;SDS011;4031;49.758;6.120;2022-12-10T06:40:46;26.93;;;16.37;;
7971;SDS011;4031;49.758;6.120;2022-12-10T06:43:12;34.20;;;18.13;;
7971;SDS011;4031;49.758;6.120;2022-12-10T06:45:41;28.53;;;13.93;;
7971;SDS011;4031;49.758;6.120;2022-12-10T06:48:08;28.30;;;14.93;;
7971;SDS011;4031;49.758;6.120;2022-12-10T06:50:34;30.70;;;16.20;;
7971;SDS011;4031;49.758;6.120;2022-12-10T06:53:01;31.95;;;16.33;;
7971;SDS011;4031;49.758;6.120;2022-12-10T06:55:27;23.85;;;15.48;;
7971;SDS011;4031;49.758;6.120;2022-12-10T06:57:53;28.97;;;16.47;;
7971;SDS011;4031;49.758;6.120;2022-12-10T07:00:20;34.38;;;14.98;;
7971;SDS011;4031;49.758;6.120;2022-12-10T07:02:47;27.90;;;14.20;;
7971;SDS011;4031;49.758;6.120;2022-12-10T07:05:13;24.55;;;14.85;;
7971;SDS011;4031;49.758;6.120;2022-12-10T07:07:39;27.70;;;15.57;;
7971;SDS011;4031;49.758;6.120;2022-12-10T07:10:05;34.22;;;16.58;;
7971;SDS011;4031;49.758;6.120;2022-12-10T07:12:31;27.10;;;15.10;;
7971;SDS011;4031;49.758;6.120;2022-12-10T07:14:57;29.47;;;14.20;;
7971;SDS011;4031;49.758;6.120;2022-12-10T07:17:23;23.87;;;14.80;;
7971;SDS011;4031;49.758;6.120;2022-12-10T07:19:49;29.97;;;13.40;;
7971;SDS011;4031;49.758;6.120;2022-12-10T07:22:15;29.00;;;14.97;;
7971;SDS011;4031;49.758;6.120;2022-12-10T07:24:41;28.27;;;14.13;;
7971;SDS011;4031;49.758;6.120;2022-12-10T07:27:07;33.37;;;15.27;;
7971;SDS011;4031;49.758;6.120;2022-12-10T07:29:33;31.20;;;15.82;;
7971;SDS011;4031;49.758;6.120;2022-12-10T07:31:59;30.80;;;15.25;;
7971;SDS011;4031;49.758;6.120;2022-12-10T07:34:25;33.30;;;15.40;;
7971;SDS011;4031;49.758;6.120;2022-12-10T07:36:51;29.80;;;14.33;;
7971;SDS011;4031;49.758;6.120;2022-12-10T07:39:16;35.87;;;14.43;;
7971;SDS011;4031;49.758;6.120;2022-12-10T07:41:48;28.53;;;15.77;;
7971;SDS011;4031;49.758;6.120;2022-12-10T07:44:17;33.53;;;16.35;;
7971;SDS011;4031;49.758;6.120;2022-12-10T07:46:49;31.95;;;15.90;;
7971;SDS011;4031;49.758;6.120;2022-12-10T07:49:16;54.20;;;18.70;;
7971;SDS011;4031;49.758;6.120;2022-12-10T07:51:45;28.40;;;15.15;;
7971;SDS011;4031;49.758;6.120;2022-12-10T07:54:13;32.83;;;16.33;;
7971;SDS011;4031;49.758;6.120;2022-12-10T07:56:40;34.17;;;14.57;;
7971;SDS011;4031;49.758;6.120;2022-12-10T07:59:06;34.30;;;16.23;;
7971;SDS011;4031;49.758;6.120;2022-12-10T08:01:32;38.27;;;17.60;;
7971;SDS011;4031;49.758;6.120;2022-12-10T08:03:57;30.10;;;14.87;;
7971;SDS011;4031;49.758;6.120;2022-12-10T08:06:24;37.50;;;16.33;;
7971;SDS011;4031;49.758;6.120;2022-12-10T08:08:52;35.72;;;18.00;;
7971;SDS011;4031;49.758;6.120;2022-12-10T08:11:18;39.88;;;17.90;;
7971;SDS011;4031;49.758;6.120;2022-12-10T08:13:46;43.97;;;15.00;;
7971;SDS011;4031;49.758;6.120;2022-12-10T08:16:14;33.05;;;17.00;;
7971;SDS011;4031;49.758;6.120;2022-12-10T08:18:47;34.22;;;16.75;;
7971;SDS011;4031;49.758;6.120;2022-12-10T08:21:15;43.75;;;18.27;;
7971;SDS011;4031;49.758;6.120;2022-12-10T08:23:45;34.10;;;14.60;;
7971;SDS011;4031;49.758;6.120;2022-12-10T08:26:13;27.25;;;14.32;;
7971;SDS011;4031;49.758;6.120;2022-12-10T08:28:42;35.30;;;15.38;;
7971;SDS011;4031;49.758;6.120;2022-12-10T08:31:09;27.80;;;14.55;;
7971;SDS011;4031;49.758;6.120;2022-12-10T08:33:37;36.17;;;19.08;;
7971;SDS011;4031;49.758;6.120;2022-12-10T08:36:04;33.50;;;15.77;;
7971;SDS011;4031;49.758;6.120;2022-12-10T08:38:31;39.28;;;18.15;;
7971;SDS011;4031;49.758;6.120;2022-12-10T08:40:57;32.80;;;17.40;;
7971;SDS011;4031;49.758;6.120;2022-12-10T08:43:23;37.43;;;17.07;;
7971;SDS011;4031;49.758;6.120;2022-12-10T08:45:49;36.50;;;16.02;;
7971;SDS011;4031;49.758;6.120;2022-12-10T08:48:15;42.40;;;17.00;;
7971;SDS011;4031;49.758;6.120;2022-12-10T08:50:40;39.77;;;17.63;;
7971;SDS011;4031;49.758;6.120;2022-12-10T08:53:06;38.20;;;17.97;;
7971;SDS011;4031;49.758;6.120;2022-12-10T08:55:32;33.92;;;16.83;;
7971;SDS011;4031;49.758;6.120;2022-12-10T08:58:02;30.05;;;12.77;;
7971;SDS011;4031;49.758;6.120;2022-12-10T09:00:28;36.23;;;17.23;;
7971;SDS011;4031;49.758;6.120;2022-12-10T09:02:53;46.93;;;19.83;;
7971;SDS011;4031;49.758;6.120;2022-12-10T09:05:19;31.47;;;17.30;;
7971;SDS011;4031;49.758;6.120;2022-12-10T09:07:45;30.33;;;13.47;;
7971;SDS011;4031;49.758;6.120;2022-12-10T09:10:11;30.70;;;14.83;;
7971;SDS011;4031;49.758;6.120;2022-12-10T09:12:37;34.37;;;17.47;;
7971;SDS011;4031;49.758;6.120;2022-12-10T09:15:04;30.40;;;16.92;;
7971;SDS011;4031;49.758;6.120;2022-12-10T09:17:31;30.83;;;15.95;;
7971;SDS011;4031;49.758;6.120;2022-12-10T09:19:57;27.20;;;15.00;;
7971;SDS011;4031;49.758;6.120;2022-12-10T09:22:22;28.60;;;16.60;;
7971;SDS011;4031;49.758;6.120;2022-12-10T09:24:48;24.43;;;14.10;;
7971;SDS011;4031;49.758;6.120;2022-12-10T09:27:14;28.93;;;13.47;;
7971;SDS011;4031;49.758;6.120;2022-12-10T09:29:39;30.40;;;17.67;;
7971;SDS011;4031;49.758;6.120;2022-12-10T09:32:05;31.47;;;18.27;;
7971;SDS011;4031;49.758;6.120;2022-12-10T09:34:31;17.73;;;7.30;;
7971;SDS011;4031;49.758;6.120;2022-12-10T09:36:56;27.60;;;15.03;;
7971;SDS011;4031;49.758;6.120;2022-12-10T09:39:22;27.70;;;17.50;;
7971;SDS011;4031;49.758;6.120;2022-12-10T09:47:08;23.60;;;13.20;;
7971;SDS011;4031;49.758;6.120;2022-12-10T09:52:20;14.82;;;9.45;;
7971;SDS011;4031;49.758;6.120;2022-12-10T09:54:53;22.48;;;14.00;;
7971;SDS011;4031;49.758;6.120;2022-12-10T09:57:33;24.83;;;13.57;;
7971;SDS011;4031;49.758;6.120;2022-12-10T10:00:09;16.67;;;9.93;;
7971;SDS011;4031;49.758;6.120;2022-12-10T10:02:45;18.33;;;9.80;;
7971;SDS011;4031;49.758;6.120;2022-12-10T10:05:24;22.37;;;11.80;;
7971;SDS011;4031;49.758;6.120;2022-12-10T10:08:13;21.53;;;12.70;;
7971;SDS011;4031;49.758;6.120;2022-12-10T10:11:04;22.33;;;14.10;;
7971;SDS011;4031;49.758;6.120;2022-12-10T10:13:42;25.37;;;14.10;;
7971;SDS011;4031;49.758;6.120;2022-12-10T10:21:37;30.00;;;15.20;;
7971;SDS011;4031;49.758;6.120;2022-12-10T10:24:05;30.73;;;17.00;;
7971;SDS011;4031;49.758;6.120;2022-12-10T10:26:38;24.77;;;13.07;;
7971;SDS011;4031;49.758;6.120;2022-12-10T10:29:05;29.10;;;16.47;;
7971;SDS011;4031;49.758;6.120;2022-12-10T10:31:36;26.87;;;14.33;;
7971;SDS011;4031;49.758;6.120;2022-12-10T10:34:12;29.90;;;12.30;;
7971;SDS011;4031;49.758;6.120;2022-12-10T10:36:43;19.67;;;10.23;;
7971;SDS011;4031;49.758;6.120;2022-12-10T10:39:11;36.90;;;20.20;;
7971;SDS011;4031;49.758;6.120;2022-12-10T10:41:43;21.60;;;10.33;;
7971;SDS011;4031;49.758;6.120;2022-12-10T10:44:18;29.63;;;15.47;;
7971;SDS011;4031;49.758;6.120;2022-12-10T10:46:47;29.00;;;17.87;;
7971;SDS011;4031;49.758;6.120;2022-12-10T10:49:26;28.90;;;17.03;;
7971;SDS011;4031;49.758;6.120;2022-12-10T10:52:12;31.20;;;17.50;;
7971;SDS011;4031;49.758;6.120;2022-12-10T10:54:42;15.33;;;9.00;;
7971;SDS011;4031;49.758;6.120;2022-12-10T11:00:01;25.80;;;15.27;;
7971;SDS011;4031;49.758;6.120;2022-12-10T11:02:49;21.80;;;13.83;;
7971;SDS011;4031;49.758;6.120;2022-12-10T11:07:56;26.03;;;11.43;;
7971;SDS011;4031;49.758;6.120;2022-12-10T11:10:25;30.10;;;15.63;;
7971;SDS011;4031;49.758;6.120;2022-12-10T11:12:54;24.63;;;15.37;;
7971;SDS011;4031;49.758;6.120;2022-12-10T11:15:39;28.63;;;15.73;;
7971;SDS011;4031;49.758;6.120;2022-12-10T11:23:38;23.20;;;14.67;;
7971;SDS011;4031;49.758;6.120;2022-12-10T11:49:44;21.53;;;12.57;;
7971;SDS011;4031;49.758;6.120;2022-12-10T11:55:29;23.70;;;13.97;;
7971;SDS011;4031;49.758;6.120;2022-12-10T12:03:47;22.83;;;12.40;;
7971;SDS011;4031;49.758;6.120;2022-12-10T12:09:48;25.70;;;14.47;;
7971;SDS011;4031;49.758;6.120;2022-12-10T12:13:00;25.00;;;14.00;;
7971;SDS011;4031;49.758;6.120;2022-12-10T12:15:53;21.13;;;13.63;;
7971;SDS011;4031;49.758;6.120;2022-12-10T12:21:11;20.40;;;12.47;;
7971;SDS011;4031;49.758;6.120;2022-12-10T12:27:00;20.27;;;12.23;;
7971;SDS011;4031;49.758;6.120;2022-12-10T12:32:03;21.47;;;12.00;;
7971;SDS011;4031;49.758;6.120;2022-12-10T12:34:45;23.50;;;11.53;;
7971;SDS011;4031;49.758;6.120;2022-12-10T12:43:12;30.87;;;13.37;;
7971;SDS011;4031;49.758;6.120;2022-12-10T12:45:45;21.87;;;12.40;;
7971;SDS011;4031;49.758;6.120;2022-12-10T12:48:18;22.47;;;11.97;;
7971;SDS011;4031;49.758;6.120;2022-12-10T12:50:55;22.03;;;12.50;;
7971;SDS011;4031;49.758;6.120;2022-12-10T12:53:37;22.00;;;10.80;;
7971;SDS011;4031;49.758;6.120;2022-12-10T12:56:10;20.73;;;11.83;;
7971;SDS011;4031;49.758;6.120;2022-12-10T13:02:23;23.70;;;11.00;;
7971;SDS011;4031;49.758;6.120;2022-12-10T13:05:23;11.30;;;6.47;;
7971;SDS011;4031;49.758;6.120;2022-12-10T13:10:43;19.27;;;10.03;;
7971;SDS011;4031;49.758;6.120;2022-12-10T13:13:30;19.07;;;9.67;;
7971;SDS011;4031;49.758;6.120;2022-12-10T13:27:04;19.40;;;10.40;;
7971;SDS011;4031;49.758;6.120;2022-12-10T13:32:24;19.80;;;10.90;;
7971;SDS011;4031;49.758;6.120;2022-12-10T13:42:58;19.53;;;10.27;;
7971;SDS011;4031;49.758;6.120;2022-12-10T13:46:26;16.33;;;9.47;;
7971;SDS011;4031;49.758;6.120;2022-12-10T13:49:19;14.50;;;8.07;;
7971;SDS011;4031;49.758;6.120;2022-12-10T13:51:55;17.33;;;9.70;;
7971;SDS011;4031;49.758;6.120;2022-12-10T14:00:15;18.53;;;10.13;;
7971;SDS011;4031;49.758;6.120;2022-12-10T14:08:05;13.67;;;8.57;;
7971;SDS011;4031;49.758;6.120;2022-12-10T14:10:40;15.90;;;9.80;;
7971;SDS011;4031;49.758;6.120;2022-12-10T14:13:10;19.73;;;9.43;;
7971;SDS011;4031;49.758;6.120;2022-12-10T14:15:41;15.80;;;10.03;;
7971;SDS011;4031;49.758;6.120;2022-12-10T14:18:18;25.20;;;15.63;;
7971;SDS011;4031;49.758;6.120;2022-12-10T14:20:45;21.23;;;11.23;;
7971;SDS011;4031;49.758;6.120;2022-12-10T14:23:29;18.37;;;10.10;;
7971;SDS011;4031;49.758;6.120;2022-12-10T14:26:02;17.70;;;9.23;;
7971;SDS011;4031;49.758;6.120;2022-12-10T14:28:44;23.00;;;9.70;;
7971;SDS011;4031;49.758;6.120;2022-12-10T14:31:44;19.97;;;11.47;;
7971;SDS011;4031;49.758;6.120;2022-12-10T14:34:18;20.20;;;9.50;;
7971;SDS011;4031;49.758;6.120;2022-12-10T14:36:51;27.90;;;16.27;;
7971;SDS011;4031;49.758;6.120;2022-12-10T14:39:29;23.03;;;12.00;;
7971;SDS011;4031;49.758;6.120;2022-12-10T14:42:02;37.40;;;25.00;;
7971;SDS011;4031;49.758;6.120;2022-12-10T14:44:31;24.33;;;15.63;;
7971;SDS011;4031;49.758;6.120;2022-12-10T14:47:04;13.03;;;8.47;;
7971;SDS011;4031;49.758;6.120;2022-12-10T14:49:43;19.33;;;11.97;;
7971;SDS011;4031;49.758;6.120;2022-12-10T14:54:45;19.93;;;10.10;;
7971;SDS011;4031;49.758;6.120;2022-12-10T14:57:25;20.83;;;10.27;;
7971;SDS011;4031;49.758;6.120;2022-12-10T15:00:06;18.20;;;10.60;;
7971;SDS011;4031;49.758;6.120;2022-12-10T15:02:37;19.73;;;11.30;;
7971;SDS011;4031;49.758;6.120;2022-12-10T15:05:20;22.03;;;13.33;;
7971;SDS011;4031;49.758;6.120;2022-12-10T15:10:40;15.77;;;9.63;;
7971;SDS011;4031;49.758;6.120;2022-12-10T15:13:17;19.67;;;9.43;;
7971;SDS011;4031;49.758;6.120;2022-12-10T15:15:49;19.80;;;11.23;;
7971;SDS011;4031;49.758;6.120;2022-12-10T15:18:18;16.87;;;9.70;;
7971;SDS011;4031;49.758;6.120;2022-12-10T15:21:10;16.40;;;10.00;;
7971;SDS011;4031;49.758;6.120;2022-12-10T15:23:42;21.50;;;11.00;;
7971;SDS011;4031;49.758;6.120;2022-12-10T15:29:27;15.05;;;8.68;;
7971;SDS011;4031;49.758;6.120;2022-12-10T15:32:44;16.27;;;8.35;;
7971;SDS011;4031;49.758;6.120;2022-12-10T15:34:55;14.45;;;9.05;;
7971;SDS011;4031;49.758;6.120;2022-12-10T15:37:27;25.05;;;10.90;;
7971;SDS011;4031;49.758;6.120;2022-12-10T15:40:04;17.80;;;10.02;;
7971;SDS011;4031;49.758;6.120;2022-12-10T15:42:46;20.75;;;10.85;;
7971;SDS011;4031;49.758;6.120;2022-12-10T15:48:09;34.15;;;23.00;;
7971;SDS011;4031;49.758;6.120;2022-12-10T15:50:37;29.05;;;21.02;;
7971;SDS011;4031;49.758;6.120;2022-12-10T15:53:08;25.30;;;14.88;;
7971;SDS011;4031;49.758;6.120;2022-12-10T15:55:40;25.90;;;14.35;;
7971;SDS011;4031;49.758;6.120;2022-12-10T15:58:10;23.00;;;13.20;;
7971;SDS011;4031;49.758;6.120;2022-12-10T16:00:37;23.08;;;12.13;;
7971;SDS011;4031;49.758;6.120;2022-12-10T16:03:08;18.90;;;11.07;;
7971;SDS011;4031;49.758;6.120;2022-12-10T16:05:40;22.30;;;12.88;;
7971;SDS011;4031;49.758;6.120;2022-12-10T16:08:13;18.73;;;11.57;;
7971;SDS011;4031;49.758;6.120;2022-12-10T16:10:47;15.57;;;9.48;;
7971;SDS011;4031;49.758;6.120;2022-12-10T16:13:16;19.50;;;10.75;;
7971;SDS011;4031;49.758;6.120;2022-12-10T16:15:50;20.55;;;10.90;;
7971;SDS011;4031;49.758;6.120;2022-12-10T16:18:22;25.23;;;12.68;;
7971;SDS011;4031;49.758;6.120;2022-12-10T16:20:48;16.20;;;10.80;;
7971;SDS011;4031;49.758;6.120;2022-12-10T16:23:14;26.50;;;11.47;;
7971;SDS011;4031;49.758;6.120;2022-12-10T16:25:41;27.75;;;12.40;;
7971;SDS011;4031;49.758;6.120;2022-12-10T16:28:12;25.20;;;11.88;;
7971;SDS011;4031;49.758;6.120;2022-12-10T16:30:53;19.63;;;10.65;;
7971;SDS011;4031;49.758;6.120;2022-12-10T16:33:23;17.92;;;10.32;;
7971;SDS011;4031;49.758;6.120;2022-12-10T16:35:52;18.27;;;9.80;;
7971;SDS011;4031;49.758;6.120;2022-12-10T16:38:19;18.13;;;10.15;;
7971;SDS011;4031;49.758;6.120;2022-12-10T16:40:46;18.48;;;10.20;;
7971;SDS011;4031;49.758;6.120;2022-12-10T16:43:17;24.65;;;10.50;;
7971;SDS011;4031;49.758;6.120;2022-12-10T16:45:53;22.90;;;12.40;;
7971;SDS011;4031;49.758;6.120;2022-12-10T16:48:20;22.77;;;10.93;;
7971;SDS011;4031;49.758;6.120;2022-12-10T16:50:46;19.33;;;10.55;;
7971;SDS011;4031;49.758;6.120;2022-12-10T16:55:50;17.45;;;9.20;;
7971;SDS011;4031;49.758;6.120;2022-12-10T16:58:21;20.10;;;9.52;;
7971;SDS011;4031;49.758;6.120;2022-12-10T17:00:50;20.17;;;9.23;;
7971;SDS011;4031;49.758;6.120;2022-12-10T17:03:18;19.42;;;8.65;;
7971;SDS011;4031;49.758;6.120;2022-12-10T17:05:48;18.58;;;11.23;;
7971;SDS011;4031;49.758;6.120;2022-12-10T17:08:35;16.83;;;9.32;;
7971;SDS011;4031;49.758;6.120;2022-12-10T17:11:00;25.23;;;11.63;;
7971;SDS011;4031;49.758;6.120;2022-12-10T17:13:45;20.92;;;10.88;;
7971;SDS011;4031;49.758;6.120;2022-12-10T17:16:15;20.77;;;8.98;;
7971;SDS011;4031;49.758;6.120;2022-12-10T17:18:47;16.77;;;10.30;;
7971;SDS011;4031;49.758;6.120;2022-12-10T17:21:13;22.80;;;11.57;;
7971;SDS011;4031;49.758;6.120;2022-12-10T17:23:39;17.10;;;10.07;;
7971;SDS011;4031;49.758;6.120;2022-12-10T17:26:05;22.53;;;10.90;;
7971;SDS011;4031;49.758;6.120;2022-12-10T17:28:31;16.38;;;9.27;;
7971;SDS011;4031;49.758;6.120;2022-12-10T17:30:57;18.58;;;9.63;;
7971;SDS011;4031;49.758;6.120;2022-12-10T17:33:23;20.40;;;11.38;;
7971;SDS011;4031;49.758;6.120;2022-12-10T17:35:50;22.37;;;11.00;;
7971;SDS011;4031;49.758;6.120;2022-12-10T17:38:18;23.08;;;12.10;;
7971;SDS011;4031;49.758;6.120;2022-12-10T17:40:48;22.63;;;10.95;;
7971;SDS011;4031;49.758;6.120;2022-12-10T17:43:14;22.25;;;10.70;;
7971;SDS011;4031;49.758;6.120;2022-12-10T17:45:41;25.05;;;11.25;;